aviador You're here:

UKHH Decoded Metar

KHARKOV in UKRAINE
Report Time2017-12-16 03:30:00
UTC Time2017-12-16 03:40:52
Flight Rules lifr LIFR
Wind160° at 12 kt
W.Decomp.*RWY 07: 1.7 kt HW 11.9 kt RCW
W.Rank160° ranks 30
Current wind is above 160° avg. (6.8)
Visibility1300 m
Phenomena:Mist
Clouds:Overcast 001 Hf
Ceiling100 ft
Temp06°C (ISA -8)
Dew Point06°C (100% RH)
AAT0.8°C
QNH1013 hPa
Density Alt-325 ft
Elevation509 ft
Report Wrong Elevation
Raw Report
UKHH 160330Z 16006MPS 1300 R07/P2000U BR OVC001 06/06 Q1013
R07/190061 NOSIG=

Extra information for UKHH:More info

Metar Taf Metar & Taf Last 4 Metars F.Rules Stats Wind Profile Meteogram Temp Stats Airport Information Weather charts Add Link Nearby VenuesMetar ALERT Operation Metar Decoded Social comments